Time;durP1;ratioP1;P1;durP2;ratioP2;P2;SDS_P1;SDS_P2;PMS_P1;PMS_P2;Temp;Humidity;BMP_temperature;BMP_pressure;BME280_temperature;BME280_humidity;BME280_pressure;Samples;Min_cycle;Max_cycle;Signal;HPM_P1;HPM_P2
2023/08/31 00:00:11;;;;;;;9.17;8.27;;;17.20;99.90;;;;;;5033784;28;20689;-60
2023/08/31 00:02:39;;;;;;;9.30;8.20;;;17.10;99.90;;;;;;5034524;28;20961;-60
2023/08/31 00:05:05;;;;;;;9.43;8.60;;;17.10;99.90;;;;;;5033788;28;20956;-60
2023/08/31 00:07:32;;;;;;;8.93;8.23;;;17.10;99.90;;;;;;5034247;28;20431;-60
2023/08/31 00:09:58;;;;;;;8.47;7.67;;;17.10;99.90;;;;;;5034508;28;20437;-60
2023/08/31 00:12:24;;;;;;;8.50;7.70;;;17.10;99.90;;;;;;5033871;28;20425;-60
2023/08/31 00:14:50;;;;;;;8.87;8.17;;;17.10;99.90;;;;;;5034470;28;20408;-60
2023/08/31 00:17:17;;;;;;;7.33;6.83;;;17.10;99.90;;;;;;5033460;28;20501;-61
2023/08/31 00:19:43;;;;;;;8.47;7.87;;;17.10;99.90;;;;;;5034108;28;20421;-60
2023/08/31 00:22:09;;;;;;;8.47;7.80;;;17.10;99.90;;;;;;5033941;28;20408;-60
2023/08/31 00:24:36;;;;;;;8.87;8.07;;;17.10;99.90;;;;;;5034341;28;20389;-60
2023/08/31 00:27:03;;;;;;;8.00;7.40;;;17.10;99.90;;;;;;5032666;28;20292;-60
2023/08/31 00:29:29;;;;;;;8.10;7.30;;;17.10;99.90;;;;;;5033236;28;20406;-60
2023/08/31 00:31:58;;;;;;;8.00;7.40;;;17.10;99.90;;;;;;5034112;28;20397;-60
2023/08/31 00:34:24;;;;;;;7.70;7.10;;;17.10;99.90;;;;;;5033265;28;20409;-60
2023/08/31 00:36:50;;;;;;;7.50;7.00;;;17.00;99.90;;;;;;5034181;28;20901;-60
2023/08/31 00:39:20;;;;;;;7.13;6.53;;;17.10;99.90;;;;;;5033350;28;20167;-60
2023/08/31 00:41:46;;;;;;;8.17;7.43;;;17.00;99.90;;;;;;5034045;28;20328;-60
2023/08/31 00:44:12;;;;;;;8.40;6.87;;;17.00;99.90;;;;;;5033026;28;20784;-61
2023/08/31 00:46:38;;;;;;;8.40;7.77;;;17.00;99.90;;;;;;5032360;28;20424;-60
2023/08/31 00:49:04;;;;;;;7.13;6.70;;;17.00;99.90;;;;;;5033849;28;20258;-60
2023/08/31 00:51:30;;;;;;;7.20;6.70;;;17.00;99.90;;;;;;5033134;28;20178;-60
2023/08/31 00:53:58;;;;;;;7.80;7.10;;;17.00;99.90;;;;;;5033779;28;20401;-60
2023/08/31 00:56:25;;;;;;;6.97;6.47;;;16.90;99.90;;;;;;5032694;28;20420;-60
2023/08/31 00:58:51;;;;;;;7.80;7.10;;;16.90;99.90;;;;;;5033586;28;20401;-60
2023/08/31 01:01:22;;;;;;;8.60;7.20;;;16.90;99.90;;;;;;5032778;28;20567;-60
2023/08/31 01:03:58;;;;;;;7.60;7.00;;;16.90;99.90;;;;;;5033275;28;20453;-61
2023/08/31 01:06:31;;;;;;;7.17;6.57;;;16.90;99.90;;;;;;5032920;28;20401;-60
2023/08/31 01:09:07;;;;;;;7.70;7.10;;;16.90;99.90;;;;;;5033068;28;20449;-60
2023/08/31 01:11:36;;;;;;;8.10;7.30;;;16.90;99.90;;;;;;5032793;28;20400;-60
2023/08/31 01:14:15;;;;;;;7.10;6.60;;;16.90;99.90;;;;;;5033338;28;20409;-61
2023/08/31 01:16:43;;;;;;;7.27;6.77;;;16.90;99.90;;;;;;5032956;28;20797;-60
2023/08/31 01:19:32;;;;;;;8.13;7.37;;;16.90;99.90;;;;;;5013526;28;20397;-60
2023/08/31 01:22:05;;;;;;;7.63;7.13;;;16.90;99.90;;;;;;5012377;28;20437;-60
2023/08/31 01:24:31;;;;;;;7.17;6.67;;;16.90;99.90;;;;;;5012864;28;20712;-60
2023/08/31 01:26:57;;;;;;;7.93;6.70;;;16.90;99.90;;;;;;5013386;28;20417;-60
2023/08/31 01:29:23;;;;;;;7.47;6.77;;;16.90;99.90;;;;;;5012793;28;20422;-60
2023/08/31 01:31:49;;;;;;;6.87;6.27;;;16.90;99.90;;;;;;5013296;28;20445;-60
2023/08/31 01:34:14;;;;;;;6.50;6.10;;;16.90;99.90;;;;;;5012906;28;20171;-60
2023/08/31 01:36:50;;;;;;;7.40;6.90;;;16.90;99.90;;;;;;5016588;28;20182;-60
2023/08/31 01:39:26;;;;;;;6.57;6.07;;;17.00;99.90;;;;;;5032385;28;20261;-61
2023/08/31 01:42:00;;;;;;;7.37;6.77;;;16.90;99.90;;;;;;5032917;28;20445;-61
2023/08/31 01:44:29;;;;;;;7.20;6.70;;;16.90;99.90;;;;;;5031578;28;20389;-61
2023/08/31 01:47:05;;;;;;;6.77;6.27;;;16.90;99.90;;;;;;5032886;28;20409;-61
2023/08/31 01:49:36;;;;;;;7.03;6.33;;;16.80;99.90;;;;;;5031943;28;20885;-60
2023/08/31 01:52:02;;;;;;;7.87;7.10;;;16.80;99.90;;;;;;5032863;28;20389;-60
2023/08/31 01:54:28;;;;;;;7.60;6.90;;;16.80;99.90;;;;;;5031878;28;20405;-60
2023/08/31 01:56:54;;;;;;;7.30;6.87;;;16.70;99.90;;;;;;5032545;28;20446;-60
2023/08/31 01:59:20;;;;;;;7.67;7.07;;;16.70;99.90;;;;;;5031672;28;20421;-60
2023/08/31 02:01:45;;;;;;;7.33;6.70;;;16.70;99.90;;;;;;5032531;28;20234;-60
2023/08/31 02:04:11;;;;;;;7.50;6.83;;;16.70;99.90;;;;;;5032266;28;20226;-60
2023/08/31 02:06:37;;;;;;;8.30;7.27;;;16.60;99.90;;;;;;5032040;28;20625;-61
2023/08/31 02:09:03;;;;;;;7.40;6.90;;;16.60;99.90;;;;;;5032864;28;20228;-60
2023/08/31 02:11:28;;;;;;;7.70;6.93;;;16.60;99.90;;;;;;5031926;28;20615;-60
2023/08/31 02:13:54;;;;;;;7.60;6.90;;;16.70;99.90;;;;;;5032524;28;20416;-60
2023/08/31 02:16:20;;;;;;;7.00;6.40;;;16.70;99.90;;;;;;5031574;28;20619;-60
2023/08/31 02:18:45;;;;;;;7.27;6.67;;;16.60;99.90;;;;;;5032282;28;20244;-60
2023/08/31 02:21:12;;;;;;;6.87;6.37;;;16.60;99.90;;;;;;5032277;28;20658;-60
2023/08/31 02:23:38;;;;;;;6.53;6.03;;;16.60;99.90;;;;;;5031562;28;20182;-60
2023/08/31 02:26:03;;;;;;;9.33;6.80;;;16.60;99.90;;;;;;5032468;28;20405;-60
2023/08/31 02:28:29;;;;;;;7.57;6.77;;;16.60;99.90;;;;;;5031721;28;20212;-60
2023/08/31 02:30:59;;;;;;;9.30;7.87;;;16.60;99.90;;;;;;5032136;28;20189;-60
2023/08/31 02:33:25;;;;;;;6.60;6.10;;;16.50;99.90;;;;;;5031563;28;20174;-60
2023/08/31 02:35:51;;;;;;;7.17;6.50;;;16.50;99.90;;;;;;5032315;28;20755;-60
2023/08/31 02:38:16;;;;;;;8.70;6.47;;;16.50;99.90;;;;;;5031816;28;20170;-60
2023/08/31 02:40:45;;;;;;;7.13;6.50;;;16.50;99.90;;;;;;5032267;28;20202;-60
2023/08/31 02:43:11;;;;;;;7.30;6.80;;;16.50;99.90;;;;;;5032346;28;20196;-60
2023/08/31 02:45:37;;;;;;;7.57;6.97;;;16.50;99.90;;;;;;5030926;28;20471;-60
2023/08/31 02:48:03;;;;;;;7.20;6.53;;;16.50;99.90;;;;;;5031565;28;20166;-60
2023/08/31 02:50:29;;;;;;;7.93;7.40;;;16.50;99.90;;;;;;5031515;28;20181;-62
2023/08/31 02:52:55;;;;;;;7.20;6.70;;;16.50;99.90;;;;;;5031211;28;20428;-59
2023/08/31 02:55:21;;;;;;;7.53;6.93;;;16.40;99.90;;;;;;5031451;28;20171;-59
2023/08/31 02:57:47;;;;;;;8.73;7.83;;;16.40;99.90;;;;;;5035572;28;20184;-59
2023/08/31 03:00:13;;;;;;;8.23;7.50;;;16.40;99.90;;;;;;5035274;28;20475;-59
2023/08/31 03:02:39;;;;;;;8.83;7.23;;;16.40;99.90;;;;;;5035094;28;20282;-59
2023/08/31 03:05:05;;;;;;;7.60;7.00;;;16.40;99.90;;;;;;5035226;28;20460;-59
2023/08/31 03:07:31;;;;;;;7.63;7.00;;;16.40;99.90;;;;;;5034883;28;20445;-59
2023/08/31 03:09:57;;;;;;;7.50;6.90;;;16.40;99.90;;;;;;5035324;28;20448;-60
2023/08/31 03:12:22;;;;;;;8.57;6.80;;;16.40;99.90;;;;;;5035069;28;20170;-60
2023/08/31 03:14:48;;;;;;;7.60;7.10;;;16.40;99.90;;;;;;5034597;28;20181;-60
2023/08/31 03:17:14;;;;;;;7.60;6.90;;;16.30;99.90;;;;;;5031790;28;20232;-60
2023/08/31 03:19:39;;;;;;;8.00;7.30;;;16.30;99.90;;;;;;5034182;28;20440;-60
2023/08/31 03:22:05;;;;;;;7.20;6.70;;;16.20;99.90;;;;;;5034792;28;20619;-60
2023/08/31 03:24:32;;;;;;;7.27;6.67;;;16.10;99.90;;;;;;5033022;28;20184;-61
2023/08/31 03:26:58;;;;;;;7.07;6.57;;;16.10;99.90;;;;;;5035157;28;20204;-62
2023/08/31 03:29:24;;;;;;;9.20;8.37;;;16.00;99.90;;;;;;5034649;28;20401;-62
2023/08/31 03:31:49;;;;;;;9.90;8.33;;;15.90;99.90;;;;;;5033927;28;20185;-62
2023/08/31 03:34:15;;;;;;;8.63;7.90;;;15.90;99.90;;;;;;5033928;28;20180;-64
2023/08/31 03:36:41;;;;;;;7.77;6.93;;;15.90;99.90;;;;;;5034340;28;20237;-68
2023/08/31 03:39:07;;;;;;;6.87;6.40;;;15.90;99.90;;;;;;5035098;28;20565;-67
2023/08/31 03:41:35;;;;;;;7.57;6.97;;;15.90;99.90;;;;;;5033995;28;20292;-67
2023/08/31 03:44:01;;;;;;;8.07;7.37;;;15.90;99.90;;;;;;5034765;28;20177;-67
2023/08/31 03:46:27;;;;;;;8.47;7.53;;;15.90;99.90;;;;;;5033849;28;20471;-67
2023/08/31 03:48:52;;;;;;;7.57;6.83;;;15.80;99.90;;;;;;5034461;28;20441;-67
2023/08/31 03:51:18;;;;;;;7.70;6.93;;;15.80;99.90;;;;;;5034401;28;20556;-65
2023/08/31 03:53:44;;;;;;;8.07;7.37;;;15.80;99.90;;;;;;5033954;28;20261;-67
2023/08/31 03:56:11;;;;;;;8.23;7.63;;;15.80;99.90;;;;;;5034424;28;20265;-68
2023/08/31 03:58:37;;;;;;;9.10;8.30;;;15.80;99.90;;;;;;5033443;28;21005;-68
2023/08/31 04:01:03;;;;;;;8.87;8.10;;;15.70;99.90;;;;;;5034786;28;20455;-68
2023/08/31 04:03:28;;;;;;;9.90;8.90;;;15.70;99.90;;;;;;5033879;28;20252;-68
2023/08/31 04:05:55;;;;;;;9.13;8.30;;;15.70;99.90;;;;;;5034554;28;20441;-67
2023/08/31 04:08:21;;;;;;;10.30;9.50;;;15.80;99.90;;;;;;5033676;28;20256;-60
2023/08/31 04:10:47;;;;;;;9.87;9.13;;;15.70;99.90;;;;;;5034477;28;20490;-68
2023/08/31 04:13:12;;;;;;;11.10;9.40;;;15.70;99.90;;;;;;5034566;28;20405;-68
2023/08/31 04:15:38;;;;;;;9.80;9.00;;;15.70;99.90;;;;;;5033821;28;20168;-68
2023/08/31 04:18:04;;;;;;;9.47;8.73;;;15.70;99.90;;;;;;5034384;28;20295;-68
2023/08/31 04:20:32;;;;;;;10.07;9.27;;;15.60;99.90;;;;;;5033662;28;20240;-68
2023/08/31 04:22:58;;;;;;;9.17;8.33;;;15.70;99.90;;;;;;5034334;28;20396;-68
2023/08/31 04:25:23;;;;;;;10.40;9.60;;;15.60;99.90;;;;;;5033645;28;20872;-67
2023/08/31 04:27:49;;;;;;;9.70;8.70;;;15.60;99.90;;;;;;5034282;28;20177;-68
2023/08/31 04:30:15;;;;;;;9.83;9.00;;;15.60;99.90;;;;;;5034192;28;20188;-68
2023/08/31 04:32:41;;;;;;;11.17;9.53;;;15.60;99.90;;;;;;5033559;28;20216;-68
2023/08/31 04:35:07;;;;;;;10.10;9.30;;;15.60;99.90;;;;;;5033811;28;20409;-67
2023/08/31 04:37:33;;;;;;;11.10;10.10;;;15.60;99.90;;;;;;5033466;28;20238;-67
2023/08/31 04:39:59;;;;;;;10.40;9.70;;;15.60;99.90;;;;;;5033967;28;20831;-68
2023/08/31 04:42:25;;;;;;;10.47;9.67;;;15.60;99.90;;;;;;5033349;28;20400;-67
2023/08/31 04:44:50;;;;;;;11.40;10.43;;;15.70;99.90;;;;;;5034137;28;20217;-67
2023/08/31 04:47:16;;;;;;;10.67;9.77;;;15.60;99.90;;;;;;5033603;28;20166;-68
2023/08/31 04:49:42;;;;;;;10.87;9.57;;;15.70;99.90;;;;;;5033276;28;20181;-68
2023/08/31 04:52:08;;;;;;;9.80;8.93;;;15.70;99.90;;;;;;5033667;28;20412;-68
2023/08/31 04:54:34;;;;;;;10.20;9.20;;;15.60;99.90;;;;;;5033073;28;20413;-69
2023/08/31 04:56:59;;;;;;;11.07;10.00;;;15.70;99.90;;;;;;5033789;28;20182;-68
2023/08/31 04:59:25;;;;;;;11.37;10.37;;;15.60;99.90;;;;;;5033069;28;20170;-67
2023/08/31 05:01:51;;;;;;;15.47;13.97;;;15.50;99.90;;;;;;5033466;28;20224;-69
2023/08/31 05:04:17;;;;;;;11.70;10.80;;;15.40;99.90;;;;;;5033260;28;20224;-68
2023/08/31 05:06:42;;;;;;;12.10;10.90;;;15.50;99.90;;;;;;5031565;28;20219;-67
2023/08/31 05:09:09;;;;;;;10.03;9.23;;;15.50;99.90;;;;;;5033108;28;20177;-68
2023/08/31 05:11:35;;;;;;;11.90;10.90;;;15.50;99.90;;;;;;5031595;28;20529;-68
2023/08/31 05:14:01;;;;;;;11.47;10.33;;;15.50;99.90;;;;;;5033331;28;20408;-68
2023/08/31 05:16:26;;;;;;;10.30;9.30;;;15.50;99.90;;;;;;5032823;28;20565;-67
2023/08/31 05:18:52;;;;;;;12.70;11.40;;;15.50;99.90;;;;;;5033249;28;20173;-68
2023/08/31 05:21:18;;;;;;;10.70;9.80;;;15.50;99.90;;;;;;5033017;28;20216;-68
2023/08/31 05:23:44;;;;;;;10.73;9.87;;;15.50;99.90;;;;;;5032297;28;20404;-67
2023/08/31 05:26:10;;;;;;;11.90;10.70;;;15.50;99.90;;;;;;5033282;28;20617;-68
2023/08/31 05:28:35;;;;;;;12.30;11.10;;;15.50;99.90;;;;;;5032483;28;20170;-67
2023/08/31 05:31:05;;;;;;;12.57;11.27;;;15.50;99.90;;;;;;5033003;28;20408;-67
2023/08/31 05:33:33;;;;;;;11.70;10.57;;;15.50;99.90;;;;;;5032541;28;20206;-68
2023/08/31 05:36:02;;;;;;;12.23;11.10;;;15.50;99.90;;;;;;5032992;28;20411;-67
2023/08/31 05:38:28;;;;;;;12.40;11.20;;;15.60;99.90;;;;;;5032543;28;20446;-61
2023/08/31 05:40:53;;;;;;;13.23;11.53;;;15.50;99.90;;;;;;5032382;28;20484;-68
2023/08/31 05:43:19;;;;;;;12.20;11.20;;;15.60;99.90;;;;;;5032725;28;20170;-68
2023/08/31 05:45:46;;;;;;;11.87;10.83;;;15.60;99.90;;;;;;5031720;28;20174;-68
2023/08/31 05:48:14;;;;;;;12.50;11.40;;;15.60;99.90;;;;;;5032861;28;20191;-68
2023/08/31 05:50:43;;;;;;;12.90;11.60;;;15.60;99.90;;;;;;5032256;28;20998;-67
2023/08/31 05:53:08;;;;;;;11.87;10.77;;;15.60;99.90;;;;;;5032776;28;20304;-67
2023/08/31 05:55:34;;;;;;;12.17;11.07;;;15.60;99.90;;;;;;5032066;28;20838;-67
2023/08/31 05:58:00;;;;;;;13.70;12.40;;;15.70;99.90;;;;;;5032420;28;20535;-68
2023/08/31 06:00:26;;;;;;;12.73;11.60;;;15.60;99.90;;;;;;5032621;28;20197;-67
2023/08/31 06:02:51;;;;;;;12.10;10.90;;;15.60;99.90;;;;;;5030613;28;20655;-68
2023/08/31 06:05:17;;;;;;;12.87;11.67;;;15.70;99.90;;;;;;5032391;28;20221;-67
2023/08/31 06:07:43;;;;;;;12.03;10.93;;;15.70;99.90;;;;;;5032077;28;20185;-68
2023/08/31 06:10:10;;;;;;;13.23;11.47;;;15.70;99.90;;;;;;5032544;28;20174;-68
2023/08/31 06:12:36;;;;;;;12.43;11.23;;;15.70;99.90;;;;;;5032050;28;20425;-67
2023/08/31 06:15:03;;;;;;;12.67;11.47;;;15.80;99.90;;;;;;5032562;28;20413;-68
2023/08/31 06:17:29;;;;;;;13.73;12.43;;;15.80;99.90;;;;;;5032031;28;20971;-62
2023/08/31 06:19:55;;;;;;;12.00;10.90;;;15.90;99.90;;;;;;5032378;28;20478;-68
2023/08/31 06:22:22;;;;;;;11.73;10.77;;;15.90;99.90;;;;;;5032474;28;20881;-67
2023/08/31 06:24:48;;;;;;;13.77;12.43;;;16.00;99.90;;;;;;5031910;28;20215;-67
2023/08/31 06:27:15;;;;;;;13.90;12.50;;;16.00;99.90;;;;;;5032439;28;20405;-67
2023/08/31 06:29:44;;;;;;;13.57;12.33;;;16.10;99.90;;;;;;5031854;28;20288;-67
2023/08/31 06:32:09;;;;;;;14.67;13.20;;;16.10;99.90;;;;;;5035421;28;20397;-67
2023/08/31 06:34:35;;;;;;;13.77;12.43;;;16.20;99.90;;;;;;5034780;28;20914;-67
2023/08/31 06:37:01;;;;;;;13.40;12.20;;;16.20;99.90;;;;;;5036023;28;20174;-67
2023/08/31 06:39:27;;;;;;;14.23;12.90;;;16.20;99.90;;;;;;5036266;28;20412;-67
2023/08/31 06:41:52;;;;;;;13.90;12.70;;;16.30;99.90;;;;;;5035569;28;20209;-67
2023/08/31 06:44:18;;;;;;;12.50;11.50;;;16.30;99.90;;;;;;5036204;28;20201;-67
2023/08/31 06:46:44;;;;;;;12.50;11.37;;;16.30;99.90;;;;;;5035542;28;20570;-67
2023/08/31 06:49:10;;;;;;;11.67;10.63;;;16.40;99.90;;;;;;5036148;28;20178;-67
2023/08/31 06:51:38;;;;;;;13.20;12.00;;;16.40;99.90;;;;;;5035162;28;20171;-67
2023/08/31 06:54:06;;;;;;;12.90;11.70;;;16.40;99.90;;;;;;5035977;28;20396;-67
2023/08/31 06:56:34;;;;;;;11.17;10.27;;;16.50;99.90;;;;;;5035138;28;20419;-66
2023/08/31 06:59:00;;;;;;;12.03;10.20;;;16.50;99.90;;;;;;5035884;28;20433;-67
2023/08/31 07:01:27;;;;;;;11.03;10.13;;;16.50;99.90;;;;;;5035754;28;20455;-67
2023/08/31 07:03:53;;;;;;;10.60;9.83;;;16.60;99.90;;;;;;5035179;28;20445;-67
2023/08/31 07:06:19;;;;;;;11.97;10.80;;;16.60;99.90;;;;;;5035834;28;20428;-67
2023/08/31 07:08:47;;;;;;;9.00;8.40;;;16.60;99.90;;;;;;5035174;28;20174;-67
2023/08/31 07:11:14;;;;;;;10.73;9.83;;;16.70;99.90;;;;;;5035369;28;20618;-67
2023/08/31 07:13:41;;;;;;;9.90;9.30;;;16.70;99.90;;;;;;5034897;28;20412;-67
2023/08/31 07:16:06;;;;;;;10.43;9.63;;;16.70;99.90;;;;;;5035833;28;20543;-67
2023/08/31 07:18:32;;;;;;;10.37;9.67;;;16.80;99.90;;;;;;5035308;28;20484;-62
2023/08/31 07:20:58;;;;;;;9.37;8.77;;;16.80;99.90;;;;;;5035333;28;20209;-67
2023/08/31 07:23:23;;;;;;;8.73;8.20;;;16.80;99.90;;;;;;5035464;28;20503;-67
2023/08/31 07:25:49;;;;;;;9.50;8.80;;;16.80;99.90;;;;;;5034661;28;20221;-67
2023/08/31 07:28:15;;;;;;;9.33;8.70;;;16.80;99.90;;;;;;5035362;28;20618;-67
2023/08/31 07:30:41;;;;;;;10.00;9.30;;;16.90;99.90;;;;;;5034752;28;20174;-67
2023/08/31 07:33:07;;;;;;;8.27;7.53;;;16.90;99.90;;;;;;5035307;28;20206;-67
2023/08/31 07:35:33;;;;;;;8.63;7.97;;;16.90;99.90;;;;;;5035217;28;20170;-67
2023/08/31 07:37:59;;;;;;;8.70;8.10;;;16.90;99.90;;;;;;5035454;28;20405;-67
2023/08/31 07:40:25;;;;;;;8.90;8.50;;;17.00;99.90;;;;;;5035124;28;20955;-67
2023/08/31 07:42:51;;;;;;;8.90;8.23;;;17.00;99.90;;;;;;5033325;28;20174;-67
2023/08/31 07:45:17;;;;;;;7.57;6.87;;;17.10;99.90;;;;;;5034825;28;20398;-67
2023/08/31 07:47:43;;;;;;;7.93;7.23;;;17.10;99.90;;;;;;5034448;28;20420;-67
2023/08/31 07:50:09;;;;;;;7.83;7.10;;;17.20;99.90;;;;;;5034930;28;20405;-67
2023/08/31 07:52:35;;;;;;;7.27;6.87;;;17.20;99.90;;;;;;5034030;28;20646;-66
2023/08/31 07:55:01;;;;;;;7.27;6.73;;;17.30;99.90;;;;;;5034688;28;20501;-67
2023/08/31 07:57:26;;;;;;;7.33;6.83;;;17.30;99.90;;;;;;5034949;28;20174;-67
2023/08/31 07:59:52;;;;;;;7.40;6.70;;;17.40;99.90;;;;;;5034381;28;20189;-67
2023/08/31 08:02:19;;;;;;;8.00;7.40;;;17.40;99.90;;;;;;5034571;28;20181;-66
2023/08/31 08:04:47;;;;;;;6.40;5.90;;;17.50;99.90;;;;;;5033885;28;20229;-67
2023/08/31 08:07:13;;;;;;;7.30;6.70;;;17.50;99.90;;;;;;5034704;28;20492;-67
2023/08/31 08:09:39;;;;;;;7.33;6.73;;;17.60;99.90;;;;;;5033931;28;20510;-66
2023/08/31 08:12:05;;;;;;;6.20;5.80;;;17.60;99.90;;;;;;5034789;28;20174;-67
2023/08/31 08:14:31;;;;;;;7.10;6.47;;;17.70;99.90;;;;;;5034177;28;20167;-67
2023/08/31 08:16:56;;;;;;;6.87;6.37;;;17.80;99.90;;;;;;5033864;28;20397;-67
2023/08/31 08:19:23;;;;;;;6.60;6.00;;;17.90;99.90;;;;;;5034854;28;20662;-67
2023/08/31 08:21:49;;;;;;;5.40;5.10;;;17.90;99.90;;;;;;5033718;28;20197;-67
2023/08/31 08:24:15;;;;;;;5.93;5.53;;;18.00;99.90;;;;;;5034452;28;20409;-67
2023/08/31 08:26:41;;;;;;;5.67;5.37;;;18.10;99.90;;;;;;5033625;28;20416;-67
2023/08/31 08:29:06;;;;;;;5.00;4.70;;;18.20;99.90;;;;;;5034326;28;20177;-67
2023/08/31 08:31:32;;;;;;;4.67;4.37;;;18.10;99.90;;;;;;5034395;28;20170;-67
2023/08/31 08:33:58;;;;;;;5.50;5.20;;;18.20;99.90;;;;;;5033659;28;20564;-67
2023/08/31 08:36:24;;;;;;;5.40;5.10;;;18.20;99.90;;;;;;5034115;28;20180;-67
2023/08/31 08:38:49;;;;;;;5.27;4.87;;;18.30;99.90;;;;;;5033464;28;20257;-67
2023/08/31 08:41:22;;;;;;;5.07;4.70;;;18.40;99.90;;;;;;5033939;28;20593;-68
2023/08/31 08:43:50;;;;;;;4.73;4.43;;;18.40;99.90;;;;;;5033401;28;20474;-67
2023/08/31 08:46:16;;;;;;;5.37;4.90;;;18.40;99.90;;;;;;5033622;28;20401;-67
2023/08/31 08:48:43;;;;;;;4.30;4.10;;;18.40;99.90;;;;;;5033314;28;20903;-67
2023/08/31 08:51:10;;;;;;;4.90;4.50;;;18.40;99.90;;;;;;5033898;28;20167;-68
2023/08/31 08:53:38;;;;;;;4.13;3.90;;;18.40;99.90;;;;;;5033430;28;20405;-67
2023/08/31 08:56:04;;;;;;;4.40;4.00;;;18.50;99.90;;;;;;5033713;28;20401;-67
2023/08/31 08:58:30;;;;;;;4.10;3.90;;;18.60;99.90;;;;;;5033581;28;20755;-68
2023/08/31 09:00:56;;;;;;;3.83;3.63;;;18.60;99.90;;;;;;5032964;28;20456;-67
2023/08/31 09:03:24;;;;;;;4.60;4.30;;;18.60;99.90;;;;;;5033336;28;20419;-68
2023/08/31 09:05:51;;;;;;;4.23;3.27;;;18.70;99.90;;;;;;5033000;28;20396;-67
2023/08/31 09:08:24;;;;;;;4.10;3.90;;;18.80;99.90;;;;;;5033224;28;20411;-67
2023/08/31 09:10:50;;;;;;;4.33;4.03;;;18.80;99.90;;;;;;5032929;28;20399;-67
2023/08/31 09:13:16;;;;;;;3.43;3.23;;;18.90;99.90;;;;;;5033085;28;20487;-67
2023/08/31 09:15:47;;;;;;;4.67;4.27;;;19.00;99.90;;;;;;5032791;28;20174;-67
2023/08/31 09:18:25;;;;;;;4.07;3.80;;;19.00;99.90;;;;;;5033305;28;20405;-67
2023/08/31 09:20:52;;;;;;;3.73;3.53;;;19.20;99.90;;;;;;5032574;28;20495;-68
2023/08/31 09:23:18;;;;;;;6.00;4.30;;;19.30;99.90;;;;;;5033223;28;20406;-68
2023/08/31 09:25:53;;;;;;;4.43;4.13;;;19.40;99.90;;;;;;5032631;28;20404;-67
2023/08/31 09:28:27;;;;;;;4.80;3.73;;;19.60;99.90;;;;;;5033283;28;20165;-67
2023/08/31 09:31:02;;;;;;;5.30;4.60;;;19.80;99.90;;;;;;5032568;28;20458;-67
2023/08/31 09:33:28;;;;;;;5.53;5.00;;;19.90;99.90;;;;;;5033327;28;20491;-68
2023/08/31 09:35:59;;;;;;;5.60;4.70;;;20.20;99.90;;;;;;5032460;28;20512;-68
2023/08/31 09:38:25;;;;;;;4.90;4.43;;;20.30;99.90;;;;;;5032894;28;20260;-68
2023/08/31 09:40:51;;;;;;;5.10;4.70;;;20.40;99.90;;;;;;5032073;28;20547;-67
2023/08/31 09:43:23;;;;;;;4.40;4.00;;;20.60;99.90;;;;;;5032326;28;20174;-68
2023/08/31 09:45:52;;;;;;;4.07;3.87;;;20.70;99.90;;;;;;5030437;28;20553;-67
2023/08/31 09:48:18;;;;;;;4.30;3.90;;;20.90;99.90;;;;;;5031184;28;20412;-67
2023/08/31 09:50:45;;;;;;;3.40;3.20;;;20.90;99.90;;;;;;5031893;28;20800;-62
2023/08/31 09:53:12;;;;;;;3.93;3.70;;;21.10;99.90;;;;;;5032629;28;20412;-68
2023/08/31 09:55:39;;;;;;;3.17;2.90;;;21.10;98.30;;;;;;5032787;28;20412;-68
2023/08/31 09:58:07;;;;;;;5.07;3.27;;;21.30;98.60;;;;;;5032135;28;20432;-69
2023/08/31 10:00:35;;;;;;;3.87;2.90;;;21.40;99.90;;;;;;5032324;28;20445;-67
2023/08/31 10:03:04;;;;;;;4.23;3.77;;;21.50;97.40;;;;;;5032140;28;20859;-68
2023/08/31 10:05:31;;;;;;;3.97;3.77;;;21.50;96.50;;;;;;5031972;28;20853;-68
2023/08/31 10:08:00;;;;;;;4.03;3.70;;;21.50;96.10;;;;;;5032054;28;20432;-67
2023/08/31 10:10:28;;;;;;;4.47;4.00;;;21.40;95.60;;;;;;5032909;28;20751;-67
2023/08/31 10:12:55;;;;;;;4.13;3.87;;;21.30;96.40;;;;;;5032069;28;20493;-68
2023/08/31 10:15:20;;;;;;;3.73;3.43;;;21.30;98.50;;;;;;5032615;28;20744;-68
2023/08/31 10:17:46;;;;;;;4.20;3.90;;;21.50;99.90;;;;;;5032071;28;20401;-68
2023/08/31 10:20:17;;;;;;;3.40;3.20;;;21.50;97.70;;;;;;5032479;28;20289;-68
2023/08/31 10:22:44;;;;;;;4.43;4.10;;;21.70;99.00;;;;;;5032294;28;20865;-62
2023/08/31 10:25:11;;;;;;;3.90;3.60;;;21.90;97.10;;;;;;5032484;28;20487;-68
2023/08/31 10:27:50;;;;;;;3.87;3.57;;;21.90;95.50;;;;;;5032467;28;20411;-68
2023/08/31 10:30:22;;;;;;;3.73;3.43;;;22.00;96.20;;;;;;5032570;28;20439;-68
2023/08/31 10:33:09;;;;;;;5.07;4.70;;;22.10;94.20;;;;;;5031863;28;20819;-68
2023/08/31 10:35:48;;;;;;;3.60;3.40;;;22.20;95.00;;;;;;5032392;28;20410;-68
2023/08/31 10:38:26;;;;;;;3.77;3.30;;;22.20;93.70;;;;;;5032428;28;20488;-67
2023/08/31 10:41:06;;;;;;;4.87;3.80;;;22.10;92.40;;;;;;5031780;28;20491;-68
2023/08/31 10:43:51;;;;;;;3.60;3.40;;;21.90;92.80;;;;;;5032293;28;20451;-68
2023/08/31 10:46:33;;;;;;;3.33;3.07;;;22.00;93.20;;;;;;5032012;28;20745;-68
2023/08/31 10:49:20;;;;;;;4.50;4.20;;;22.20;94.30;;;;;;5031655;28;20409;-68
2023/08/31 10:51:57;;;;;;;3.80;3.60;;;22.30;93.40;;;;;;5031716;28;20397;-66
2023/08/31 10:54:30;;;;;;;3.43;3.23;;;22.40;92.00;;;;;;5032356;28;20393;-68
2023/08/31 10:59:46;;;;;;;4.50;4.10;;;22.80;93.50;;;;;;5032389;28;20389;-68
2023/08/31 11:02:32;;;;;;;3.57;3.37;;;23.00;91.50;;;;;;5032041;28;20452;-68
2023/08/31 11:05:11;;;;;;;4.77;4.37;;;23.20;92.80;;;;;;5029961;28;20807;-67
2023/08/31 11:07:40;;;;;;;5.33;3.87;;;23.30;91.70;;;;;;5030900;28;20420;-68
2023/08/31 11:10:23;;;;;;;4.20;4.00;;;23.30;91.90;;;;;;5031518;28;20908;-68
2023/08/31 11:12:53;;;;;;;3.87;3.67;;;23.30;92.40;;;;;;5031601;28;20401;-68
2023/08/31 11:15:21;;;;;;;5.07;4.43;;;23.40;91.50;;;;;;5032306;28;20397;-68
2023/08/31 11:17:52;;;;;;;4.77;4.47;;;23.50;91.60;;;;;;5033701;28;20406;-66
2023/08/31 11:20:20;;;;;;;4.40;4.00;;;23.50;87.60;;;;;;5035417;28;20445;-68
2023/08/31 11:22:53;;;;;;;4.80;4.50;;;23.60;88.00;;;;;;5035376;28;20415;-68
2023/08/31 11:25:20;;;;;;;4.40;4.10;;;23.60;89.10;;;;;;5034376;28;20389;-68
2023/08/31 11:27:56;;;;;;;4.03;3.70;;;23.60;87.60;;;;;;5035421;28;20401;-68
2023/08/31 11:30:24;;;;;;;5.20;4.00;;;23.70;89.50;;;;;;5035262;28;20495;-69
2023/08/31 11:32:53;;;;;;;4.20;4.00;;;23.80;89.50;;;;;;5033256;28;20429;-67
2023/08/31 11:35:21;;;;;;;4.33;3.93;;;23.80;90.00;;;;;;5035252;28;20413;-68
2023/08/31 11:37:52;;;;;;;4.40;4.10;;;24.00;89.20;;;;;;5034675;28;20500;-68
2023/08/31 11:40:18;;;;;;;4.27;4.07;;;23.90;89.30;;;;;;5034649;28;20454;-67
2023/08/31 11:42:44;;;;;;;4.30;3.93;;;23.80;86.80;;;;;;5034905;28;20431;-68
2023/08/31 11:45:12;;;;;;;4.57;4.20;;;23.80;87.30;;;;;;5034194;28;20782;-67
2023/08/31 11:47:39;;;;;;;4.20;4.00;;;23.70;89.00;;;;;;5034712;28;20424;-67
2023/08/31 11:50:06;;;;;;;4.10;3.80;;;23.40;88.00;;;;;;5033817;28;20417;-67
2023/08/31 11:52:32;;;;;;;4.43;4.17;;;23.10;88.70;;;;;;5033474;28;20432;-67
2023/08/31 11:54:58;;;;;;;4.50;4.30;;;22.70;88.90;;;;;;5033700;28;20420;-67
2023/08/31 11:57:30;;;;;;;3.70;3.50;;;22.50;91.00;;;;;;5017165;28;20405;-67
2023/08/31 11:59:56;;;;;;;4.30;3.90;;;22.50;91.10;;;;;;5034355;28;20498;-66
2023/08/31 12:02:22;;;;;;;4.30;4.00;;;22.50;92.10;;;;;;5026192;28;20395;-66
2023/08/31 12:04:48;;;;;;;3.90;3.70;;;22.60;92.90;;;;;;5015094;28;20947;-68
2023/08/31 12:07:18;;;;;;;3.70;3.50;;;22.70;92.60;;;;;;5017047;28;20376;-66
2023/08/31 12:09:47;;;;;;;4.30;3.90;;;22.80;92.40;;;;;;5034639;28;20428;-68
2023/08/31 12:12:21;;;;;;;2.93;2.60;;;22.70;92.10;;;;;;5033597;28;20522;-67
2023/08/31 12:14:47;;;;;;;4.60;3.67;;;22.70;92.40;;;;;;5033533;28;20407;-67
2023/08/31 12:17:13;;;;;;;3.97;3.67;;;22.60;93.30;;;;;;5033600;28;20749;-66
2023/08/31 12:19:39;;;;;;;4.40;4.10;;;22.50;94.30;;;;;;5034400;28;20174;-67
2023/08/31 12:22:07;;;;;;;3.90;3.60;;;22.40;93.70;;;;;;5033722;28;20225;-67
2023/08/31 12:24:43;;;;;;;4.20;3.90;;;22.20;92.80;;;;;;5034284;28;20450;-67
2023/08/31 12:27:09;;;;;;;4.13;3.93;;;22.10;93.60;;;;;;5033683;28;20401;-68
2023/08/31 12:29:35;;;;;;;5.40;5.00;;;22.10;93.60;;;;;;5033552;28;20409;-68
2023/08/31 12:32:02;;;;;;;4.60;4.30;;;22.10;93.10;;;;;;5032954;28;20471;-67
2023/08/31 12:34:28;;;;;;;4.23;3.80;;;22.10;92.70;;;;;;5033954;28;20453;-67
2023/08/31 12:36:54;;;;;;;4.53;4.20;;;22.10;94.10;;;;;;5033096;28;20406;-67
2023/08/31 12:39:20;;;;;;;5.20;4.80;;;22.10;92.20;;;;;;5034110;28;20467;-67
2023/08/31 12:41:46;;;;;;;4.60;4.30;;;22.00;92.10;;;;;;5033964;28;20213;-67
2023/08/31 12:44:13;;;;;;;4.30;4.00;;;21.90;91.20;;;;;;5032608;28;20445;-70
2023/08/31 12:46:39;;;;;;;3.20;3.10;;;21.80;91.60;;;;;;5033901;28;20405;-67